createdAt,value
2018-04-22T00:01:39.913Z,7.60
2018-04-22T00:04:08.997Z,7.83
2018-04-22T00:06:38.502Z,7.80
2018-04-22T00:09:08.133Z,7.33
2018-04-22T00:11:36.896Z,7.90
2018-04-22T00:14:06.706Z,7.53
2018-04-22T00:16:36.247Z,7.40
2018-04-22T00:19:04.966Z,7.90
2018-04-22T00:21:33.972Z,6.90
2018-04-22T00:24:02.840Z,7.33
2018-04-22T00:26:31.604Z,7.40
2018-04-22T00:29:00.392Z,7.57
2018-04-22T00:31:29.462Z,7.30
2018-04-22T00:33:58.981Z,7.40
2018-04-22T00:36:28.469Z,7.13
2018-04-22T00:38:57.976Z,7.07
2018-04-22T00:41:27.470Z,7.03
2018-04-22T00:43:56.166Z,7.23
2018-04-22T00:46:25.670Z,7.30
2018-04-22T00:48:55.103Z,6.87
2018-04-22T00:51:23.867Z,6.80
2018-04-22T00:54:02.588Z,6.93
2018-04-22T00:56:32.089Z,6.60
2018-04-22T00:59:01.578Z,7.20
2018-04-22T01:01:30.752Z,7.33
2018-04-22T01:03:59.631Z,6.97
2018-04-22T01:06:28.451Z,7.30
2018-04-22T01:08:57.211Z,6.97
2018-04-22T01:11:26.290Z,6.90
2018-04-22T01:13:55.060Z,6.63
2018-04-22T01:16:24.606Z,6.83
2018-04-22T01:18:53.383Z,6.73
2018-04-22T01:21:22.127Z,6.40
2018-04-22T01:23:51.781Z,6.40
2018-04-22T01:26:20.840Z,6.30
2018-04-22T01:28:50.303Z,6.97
2018-04-22T01:31:19.119Z,6.70
2018-04-22T01:33:47.832Z,6.83
2018-04-22T01:36:16.911Z,6.43
2018-04-22T01:38:46.380Z,6.10
2018-04-22T01:41:15.300Z,6.53
2018-04-22T01:43:44.004Z,6.37
2018-04-22T01:46:13.497Z,5.87
2018-04-22T01:48:43.120Z,6.50
2018-04-22T01:51:12.581Z,6.27
2018-04-22T01:53:41.560Z,6.40
2018-04-22T01:56:10.266Z,6.43
2018-04-22T01:58:38.936Z,6.00
2018-04-22T02:01:07.674Z,6.10
2018-04-22T02:03:37.491Z,5.87
2018-04-22T02:06:06.386Z,6.20
2018-04-22T02:08:35.096Z,6.20
2018-04-22T02:11:03.968Z,6.00
2018-04-22T02:13:32.895Z,5.87
2018-04-22T02:16:01.660Z,6.13
2018-04-22T02:18:30.408Z,6.10
2018-04-22T02:20:59.885Z,6.10
2018-04-22T02:23:28.846Z,6.00
2018-04-22T02:25:57.526Z,5.80
2018-04-22T02:28:26.252Z,5.87
2018-04-22T02:30:55.050Z,5.90
2018-04-22T02:33:23.767Z,5.73
2018-04-22T02:35:52.488Z,5.83
2018-04-22T02:38:21.556Z,6.13
2018-04-22T02:40:50.361Z,6.17
2018-04-22T02:43:19.706Z,6.20
2018-04-22T02:45:48.454Z,5.40
2018-04-22T02:48:17.249Z,5.60
2018-04-22T02:50:46.029Z,5.80
2018-04-22T02:53:14.756Z,5.60
2018-04-22T02:55:43.754Z,5.77
2018-04-22T02:58:12.488Z,5.90
2018-04-22T03:00:41.119Z,5.73
2018-04-22T03:03:09.845Z,5.63
2018-04-22T03:05:39.406Z,5.80
2018-04-22T03:08:08.119Z,5.30
2018-04-22T03:10:37.907Z,5.60
2018-04-22T03:13:06.594Z,5.50
2018-04-22T03:15:35.398Z,5.57
2018-04-22T03:18:04.115Z,5.67
2018-04-22T03:20:33.512Z,5.50
2018-04-22T03:23:02.334Z,5.63
2018-04-22T03:25:31.055Z,5.50
2018-04-22T03:27:59.785Z,5.50
2018-04-22T03:30:28.832Z,5.60
2018-04-22T03:32:57.583Z,5.70
2018-04-22T03:35:26.263Z,5.30
2018-04-22T03:37:55.004Z,5.60
2018-04-22T03:40:24.882Z,5.30
2018-04-22T03:42:53.567Z,5.37
2018-04-22T03:45:22.296Z,5.03
2018-04-22T03:47:51.302Z,5.23
2018-04-22T03:50:20.789Z,4.97
2018-04-22T03:52:49.660Z,5.03
2018-04-22T03:55:18.386Z,5.80
2018-04-22T03:57:48.216Z,5.17
2018-04-22T04:00:16.950Z,5.30
2018-04-22T04:02:45.713Z,5.27
2018-04-22T04:05:14.429Z,5.33
2018-04-22T04:07:43.423Z,5.30
2018-04-22T04:10:12.172Z,5.27
2018-04-22T04:12:41.390Z,5.00
2018-04-22T04:15:10.119Z,5.00
2018-04-22T04:17:39.955Z,4.80
2018-04-22T04:20:19.641Z,4.70
2018-04-22T04:22:48.620Z,5.50
2018-04-22T04:25:43.515Z,4.97
2018-04-22T04:28:12.315Z,5.10
2018-04-22T04:30:41.008Z,4.73
2018-04-22T04:33:10.020Z,4.73
2018-04-22T04:35:38.725Z,5.10
2018-04-22T04:38:08.245Z,4.80
2018-04-22T04:40:37.770Z,4.80
2018-04-22T04:43:06.455Z,5.40
2018-04-22T04:45:35.137Z,5.00
2018-04-22T04:48:03.901Z,5.10
2018-04-22T04:50:33.328Z,4.70
2018-04-22T04:53:02.012Z,5.20
2018-04-22T04:55:30.995Z,4.33
2018-04-22T04:57:59.672Z,4.57
2018-04-22T05:00:29.167Z,4.90
2018-04-22T05:02:57.818Z,4.93
2018-04-22T05:05:26.767Z,4.77
2018-04-22T05:07:56.214Z,4.97
2018-04-22T05:10:24.883Z,4.80
2018-04-22T05:12:53.583Z,4.70
2018-04-22T05:15:22.284Z,4.90
2018-04-22T05:17:51.251Z,4.80
2018-04-22T05:20:19.967Z,4.73
2018-04-22T05:22:48.639Z,4.80
2018-04-22T05:25:17.404Z,4.80
2018-04-22T05:27:46.417Z,5.07
2018-04-22T05:30:15.153Z,4.40
2018-04-22T05:32:44.682Z,4.90
2018-04-22T05:35:13.375Z,4.73
2018-04-22T05:37:42.340Z,4.43
2018-04-22T05:40:13.959Z,4.33
2018-04-22T05:42:42.960Z,4.47
2018-04-22T05:45:11.703Z,4.57
2018-04-22T05:47:40.449Z,4.77
2018-04-22T05:50:09.256Z,4.50
2018-04-22T05:52:39.079Z,4.37
2018-04-22T05:55:08.573Z,4.60
2018-04-22T05:57:38.042Z,4.53
2018-04-22T06:00:06.820Z,4.70
2018-04-22T06:02:36.055Z,4.97
2018-04-22T06:05:04.824Z,4.57
2018-04-22T06:07:33.571Z,4.60
2018-04-22T06:10:02.323Z,4.30
2018-04-22T06:12:32.161Z,4.77
2018-04-22T06:15:00.872Z,4.40
2018-04-22T06:17:29.639Z,4.63
2018-04-22T06:19:58.410Z,4.90
2018-04-22T06:22:27.892Z,4.60
2018-04-22T06:24:56.670Z,4.70
2018-04-22T06:27:25.689Z,4.70
2018-04-22T06:29:54.473Z,4.47
2018-04-22T06:32:24.700Z,5.17
2018-04-22T06:34:54.507Z,4.60
2018-04-22T06:37:24.211Z,5.00
2018-04-22T06:39:52.941Z,20.30
2018-04-22T06:42:23.039Z,25.47
2018-04-22T06:44:51.796Z,6.00
2018-04-22T06:47:21.945Z,8.07
2018-04-22T06:49:51.386Z,9.60
2018-04-22T06:52:20.838Z,9.83
2018-04-22T06:54:49.649Z,9.67
2018-04-22T06:57:18.925Z,7.93
2018-04-22T06:59:47.791Z,6.93
2018-04-22T07:02:16.584Z,6.60
2018-04-22T07:04:45.387Z,6.50
2018-04-22T07:07:18.792Z,6.83
2018-04-22T07:09:48.015Z,6.20
2018-04-22T07:12:17.001Z,6.03
2018-04-22T07:14:45.781Z,6.07
2018-04-22T07:17:15.441Z,5.37
2018-04-22T07:19:45.436Z,5.87
2018-04-22T07:22:14.296Z,5.43
2018-04-22T07:24:43.111Z,5.77
2018-04-22T07:27:12.881Z,5.87
2018-04-22T07:29:41.671Z,5.33
2018-04-22T07:32:10.690Z,5.53
2018-04-22T07:34:41.902Z,5.90
2018-04-22T07:37:10.816Z,6.00
2018-04-22T07:39:40.140Z,5.40
2018-04-22T07:42:09.644Z,5.17
2018-04-22T07:44:39.455Z,5.13
2018-04-22T07:47:08.291Z,4.97
2018-04-22T07:49:37.235Z,5.60
2018-04-22T07:52:06.433Z,5.00
2018-04-22T07:54:37.900Z,5.33
2018-04-22T07:57:07.862Z,5.60
2018-04-22T07:59:36.814Z,5.43
2018-04-22T08:02:07.749Z,5.70
2018-04-22T08:04:37.875Z,5.40
2018-04-22T08:07:07.944Z,5.60
2018-04-22T08:09:37.549Z,5.30
2018-04-22T08:12:06.476Z,5.33
2018-04-22T08:14:36.022Z,5.33
2018-04-22T08:17:04.701Z,5.63
2018-04-22T08:19:33.428Z,5.20
2018-04-22T08:22:02.210Z,5.40
2018-04-22T08:24:30.901Z,5.37
2018-04-22T08:27:00.024Z,5.27
2018-04-22T08:29:29.469Z,5.40
2018-04-22T08:31:58.208Z,4.80
2018-04-22T08:34:26.963Z,5.67
2018-04-22T08:36:55.722Z,4.93
2018-04-22T08:39:24.439Z,5.37
2018-04-22T08:41:53.624Z,5.40
2018-04-22T08:44:22.492Z,5.70
2018-04-22T08:46:51.235Z,5.80
2018-04-22T08:49:20.427Z,5.50
2018-04-22T08:51:49.723Z,5.70
2018-04-22T08:54:18.639Z,5.57
2018-04-22T08:56:47.318Z,6.10
2018-04-22T08:59:16.045Z,5.47
2018-04-22T09:01:44.787Z,5.07
2018-04-22T09:04:14.134Z,5.43
2018-04-22T09:06:42.871Z,5.83
2018-04-22T09:09:11.533Z,5.40
2018-04-22T09:24:46.078Z,6.20
2018-04-22T09:27:15.048Z,5.70
2018-04-22T09:29:43.731Z,6.13
2018-04-22T09:32:12.459Z,5.80
2018-04-22T09:34:42.348Z,5.80
2018-04-22T09:37:11.963Z,6.27
2018-04-22T09:39:40.676Z,5.40
2018-04-22T09:42:10.160Z,5.30
2018-04-22T09:44:39.340Z,5.50
2018-04-22T09:47:09.416Z,5.83
2018-04-22T09:49:38.961Z,5.50
2018-04-22T09:52:08.335Z,5.47
2018-04-22T09:54:37.052Z,5.37
2018-04-22T09:57:05.920Z,5.70
2018-04-22T09:59:34.707Z,5.57
2018-04-22T10:02:07.971Z,5.93
2018-04-22T10:04:39.405Z,5.63
2018-04-22T10:07:08.897Z,5.80
2018-04-22T10:09:37.710Z,5.20
2018-04-22T10:12:07.162Z,5.10
2018-04-22T10:14:35.874Z,5.77
2018-04-22T10:17:04.673Z,5.60
2018-04-22T10:19:34.087Z,5.77
2018-04-22T10:22:03.690Z,5.47
2018-04-22T10:24:33.840Z,5.30
2018-04-22T10:27:02.717Z,6.13
2018-04-22T10:29:32.252Z,6.50
2018-04-22T10:32:00.946Z,6.30
2018-04-22T10:34:29.868Z,5.80
2018-04-22T10:36:58.738Z,6.10
2018-04-22T10:39:28.120Z,5.80
2018-04-22T10:41:57.122Z,6.23
2018-04-22T10:44:25.819Z,6.20
2018-04-22T10:46:54.521Z,5.57
2018-04-22T10:49:23.617Z,6.37
2018-04-22T10:51:52.352Z,6.03
2018-04-22T10:54:22.440Z,6.20
2018-04-22T10:56:51.135Z,6.17
2018-04-22T10:59:20.185Z,6.33
2018-04-22T11:01:48.994Z,6.33
2018-04-22T11:04:17.738Z,6.63
2018-04-22T11:06:46.539Z,7.10
2018-04-22T11:09:15.631Z,6.67
2018-04-22T11:11:44.514Z,7.17
2018-04-22T11:14:14.213Z,7.10
2018-04-22T11:16:43.827Z,8.80
2018-04-22T11:19:13.122Z,8.90
2018-04-22T11:21:42.144Z,7.97
2018-04-22T11:24:10.880Z,8.33
2018-04-22T11:26:40.486Z,8.20
2018-04-22T11:29:09.179Z,10.67
2018-04-22T11:31:40.651Z,13.33
2018-04-22T11:34:10.210Z,11.83
2018-04-22T11:36:38.932Z,11.43
2018-04-22T11:39:08.613Z,13.07
2018-04-22T11:41:37.881Z,14.90
2018-04-22T11:44:06.651Z,22.10
2018-04-22T11:46:37.199Z,20.80
2018-04-22T11:49:07.137Z,23.03
2018-04-22T11:51:36.678Z,22.70
2018-04-22T11:54:06.973Z,19.47
2018-04-22T11:56:35.728Z,17.53
2018-04-22T11:59:04.607Z,12.30
2018-04-22T12:01:33.525Z,10.40
2018-04-22T12:04:02.535Z,10.03
2018-04-22T12:06:32.342Z,8.53
2018-04-22T12:09:01.031Z,20.17
2018-04-22T12:11:29.765Z,12.00
2018-04-22T12:13:59.261Z,10.10
2018-04-22T12:16:29.254Z,11.77
2018-04-22T12:18:59.112Z,9.70
2018-04-22T12:21:27.897Z,7.93
2018-04-22T12:23:57.195Z,7.10
2018-04-22T12:26:26.265Z,6.30
2018-04-22T12:28:55.378Z,7.10
2018-04-22T12:31:24.919Z,6.53
2018-04-22T12:33:53.967Z,5.83
2018-04-22T12:36:23.405Z,6.47
2018-04-22T12:38:52.156Z,7.70
2018-04-22T12:41:21.784Z,6.77
2018-04-22T12:43:51.743Z,6.40
2018-04-22T12:46:20.601Z,6.00
2018-04-22T12:48:49.390Z,6.40
2018-04-22T12:51:18.676Z,6.40
2018-04-22T12:53:47.535Z,6.50
2018-04-22T12:56:16.320Z,6.17
2018-04-22T12:58:45.547Z,6.07
2018-04-22T13:01:14.345Z,5.77
2018-04-22T13:03:44.027Z,5.10
2018-04-22T13:06:12.891Z,5.03
2018-04-22T13:08:42.024Z,4.93
2018-04-22T13:11:11.536Z,5.20
2018-04-22T13:13:41.115Z,5.43
2018-04-22T13:16:10.719Z,5.10
2018-04-22T13:18:39.808Z,5.57
2018-04-22T13:21:08.956Z,4.90
2018-04-22T13:23:37.834Z,4.70
2018-04-22T13:26:07.954Z,4.80
2018-04-22T13:28:37.575Z,4.20
2018-04-22T13:31:06.407Z,4.60
2018-04-22T13:33:35.656Z,4.40
2018-04-22T13:36:05.126Z,4.33
2018-04-22T13:38:34.066Z,4.70
2018-04-22T13:41:03.132Z,4.63
2018-04-22T13:43:33.440Z,4.67
2018-04-22T13:46:02.303Z,4.00
2018-04-22T13:48:31.135Z,4.73
2018-04-22T13:51:00.014Z,7.57
2018-04-22T13:53:29.055Z,6.53
2018-04-22T13:55:59.008Z,6.23
2018-04-22T13:58:27.752Z,5.50
2018-04-22T14:00:56.658Z,5.07
2018-04-22T14:03:25.635Z,4.70
2018-04-22T14:05:54.418Z,4.47
2018-04-22T14:08:23.624Z,4.37
2018-04-22T14:10:52.662Z,4.87
2018-04-22T14:13:21.539Z,4.73
2018-04-22T14:15:50.385Z,4.70
2018-04-22T14:18:20.838Z,4.57
2018-04-22T14:20:49.805Z,5.87
2018-04-22T14:23:19.372Z,4.97
2018-04-22T14:25:48.548Z,5.50
2018-04-22T14:32:52.627Z,4.90
2018-04-22T14:35:21.873Z,4.77
2018-04-22T14:37:50.553Z,5.20
2018-04-22T14:40:19.242Z,4.70
2018-04-22T14:42:48.752Z,5.47
2018-04-22T14:46:26.913Z,9.77
2018-04-22T14:49:12.591Z,18.80
2018-04-22T14:51:41.504Z,13.10
2018-04-22T14:54:10.533Z,11.50
2018-04-22T14:56:39.536Z,9.50
2018-04-22T14:59:14.452Z,7.17
2018-04-22T15:01:44.167Z,8.03
2018-04-22T15:04:12.828Z,9.23
2018-04-22T15:06:42.400Z,9.57
2018-04-22T15:09:11.653Z,24.50
2018-04-22T15:11:41.143Z,54.73
2018-04-22T15:14:13.675Z,52.47
2018-04-22T15:16:44.011Z,46.67
2018-04-22T15:19:13.543Z,35.43
2018-04-22T15:21:42.681Z,34.77
2018-04-22T15:24:12.391Z,21.80
2018-04-22T15:26:41.244Z,26.03
2018-04-22T15:29:11.921Z,23.23
2018-04-22T15:31:40.691Z,18.77
2018-04-22T15:34:09.634Z,16.10
2018-04-22T15:36:39.330Z,13.00
2018-04-22T15:39:09.607Z,12.50
2018-04-22T15:41:38.909Z,9.90
2018-04-22T15:44:26.506Z,7.83
2018-04-22T15:46:55.574Z,6.83
2018-04-22T15:49:26.020Z,6.23
2018-04-22T15:55:27.686Z,5.50
2018-04-22T15:57:56.441Z,5.40
2018-04-22T16:00:26.401Z,4.30
2018-04-22T16:02:55.219Z,4.30
2018-04-22T16:05:24.699Z,4.47
2018-04-22T16:07:53.594Z,4.50
2018-04-22T16:10:22.824Z,4.13
2018-04-22T16:12:51.660Z,4.30
2018-04-22T16:15:21.963Z,4.17
2018-04-22T16:17:51.543Z,4.30
2018-04-22T16:20:20.509Z,4.23
2018-04-22T16:22:49.386Z,4.17
2018-04-22T16:25:20.405Z,4.43
2018-04-22T16:27:49.138Z,4.20
2018-04-22T16:30:17.993Z,4.43
2018-04-22T16:32:47.158Z,4.57
2018-04-22T16:35:16.873Z,4.33
2018-04-22T16:37:45.612Z,4.40
2018-04-22T16:40:14.516Z,3.90
2018-04-22T16:42:44.543Z,4.40
2018-04-22T16:45:14.075Z,4.47
2018-04-22T16:47:43.643Z,4.30
2018-04-22T16:50:13.073Z,4.53
2018-04-22T16:52:42.329Z,4.50
2018-04-22T16:55:11.355Z,4.33
2018-04-22T16:57:41.230Z,4.70
2018-04-22T17:00:10.772Z,4.27
2018-04-22T17:02:39.811Z,4.27
2018-04-22T17:05:08.560Z,4.83
2018-04-22T17:07:38.594Z,4.47
2018-04-22T17:10:08.322Z,4.50
2018-04-22T17:12:37.326Z,4.37
2018-04-22T17:15:06.218Z,4.40
2018-04-22T17:17:35.340Z,4.30
2018-04-22T17:20:04.329Z,4.60
2018-04-22T17:22:33.004Z,4.70
2018-04-22T17:25:02.082Z,4.43
2018-04-22T17:27:31.167Z,4.53
2018-04-22T17:30:00.110Z,4.57
2018-04-22T17:32:29.508Z,5.07
2018-04-22T17:34:58.236Z,4.93
2018-04-22T17:37:27.964Z,4.70
2018-04-22T17:39:56.721Z,5.07
2018-04-22T17:42:26.971Z,4.77
2018-04-22T17:44:56.049Z,4.70
2018-04-22T17:47:25.794Z,5.07
2018-04-22T17:49:54.824Z,5.33
2018-04-22T17:52:24.007Z,5.33
2018-04-22T17:54:52.951Z,5.60
2018-04-22T17:57:22.936Z,5.50
2018-04-22T17:59:53.185Z,5.63
2018-04-22T18:02:22.484Z,5.97
2018-04-22T18:04:54.438Z,5.80
2018-04-22T18:07:24.137Z,5.60
2018-04-22T18:09:55.034Z,5.67
2018-04-22T18:12:27.468Z,6.40
2018-04-22T18:14:56.742Z,6.87
2018-04-22T18:17:26.241Z,6.43
2018-04-22T18:19:54.954Z,6.93
2018-04-22T18:22:24.643Z,6.83
2018-04-22T18:24:53.508Z,7.10
2018-04-22T18:27:22.320Z,6.93
2018-04-22T18:29:51.633Z,7.30
2018-04-22T18:32:20.570Z,7.83
2018-04-22T18:34:49.377Z,7.90
2018-04-22T18:37:18.117Z,7.60
2018-04-22T18:39:47.467Z,7.93
2018-04-22T18:42:16.399Z,8.40
2018-04-22T18:44:45.199Z,7.83
2018-04-22T18:47:14.182Z,7.97
2018-04-22T18:49:43.429Z,7.40
2018-04-22T18:52:13.302Z,7.80
2018-04-22T18:54:42.102Z,8.63
2018-04-22T18:57:11.823Z,8.50
2018-04-22T18:59:41.489Z,8.17
2018-04-22T19:02:11.112Z,8.70
2018-04-22T19:04:39.856Z,8.77
2018-04-22T19:07:09.102Z,9.50
2018-04-22T19:09:37.970Z,8.73
2018-04-22T19:12:06.704Z,8.63
2018-04-22T19:14:36.202Z,8.90
2018-04-22T19:17:06.128Z,8.63
2018-04-22T19:19:35.610Z,9.00
2018-04-22T19:22:04.379Z,8.67
2018-04-22T19:24:33.133Z,8.70
2018-04-22T19:27:01.895Z,8.60
2018-04-22T19:29:31.369Z,7.87
2018-04-22T19:32:00.963Z,8.13
2018-04-22T19:34:30.626Z,7.90
2018-04-22T19:37:02.328Z,8.00
2018-04-22T19:39:32.397Z,8.37
2018-04-22T19:42:01.209Z,7.90
2018-04-22T19:44:30.026Z,8.10
2018-04-22T19:46:58.729Z,7.93
2018-04-22T19:49:27.932Z,8.53
2018-04-22T19:51:56.664Z,7.30
2018-04-22T19:54:25.863Z,7.93
2018-04-22T19:56:55.696Z,7.53
2018-04-22T19:59:24.431Z,7.70
2018-04-22T20:01:54.065Z,8.10
2018-04-22T20:04:23.740Z,8.27
